Time,TemperatureF,DewpointF,PressureIn,WindDirection,WindDirectionDegrees,WindSpeedMPH,WindSpeedGustMPH,Humidity,HourlyPrecipIn,Conditions,Clouds,dailyrainin,SolarRadiationWatts/m^2,SoftwareType,DateUTC
2014-08-29 00:01:00,59.9,54.1,29.97,NNW,330,4.0,13.0,81,0.00,,,0.00,0.0,meteohub,2014-08-28 22:01:00,
2014-08-29 00:06:00,59.7,54.0,29.98,NNW,334,3.0,11.0,81,0.00,,,0.00,0.0,meteohub,2014-08-28 22:06:00,
2014-08-29 00:11:00,59.7,54.0,29.98,North,0,0.0,11.0,81,0.00,,,0.00,0.0,meteohub,2014-08-28 22:11:00,
2014-08-29 00:16:00,59.5,54.0,29.98,NNE,12,0.0,11.0,82,0.00,,,0.00,0.0,meteohub,2014-08-28 22:16:00,
2014-08-29 00:21:00,59.5,54.0,29.98,NNE,14,4.0,11.0,82,0.00,,,0.00,0.0,meteohub,2014-08-28 22:21:00,
2014-08-29 00:27:00,59.4,53.8,29.97,NNW,348,3.0,11.0,82,0.00,,,0.00,0.0,meteohub,2014-08-28 22:27:00,
2014-08-29 00:32:00,59.2,53.6,29.97,NW,310,2.0,7.0,82,0.00,,,0.00,0.0,meteohub,2014-08-28 22:32:00,
2014-08-29 00:37:00,59.2,53.6,29.97,North,5,6.0,7.0,82,0.00,,,0.00,0.0,meteohub,2014-08-28 22:37:00,
2014-08-29 00:42:00,58.8,53.6,29.97,NNW,331,4.0,8.0,83,0.00,,,0.00,0.0,meteohub,2014-08-28 22:42:00,
2014-08-29 00:47:00,58.8,53.6,29.97,NNW,343,7.0,10.0,83,0.00,,,0.00,0.0,meteohub,2014-08-28 22:47:00,
2014-08-29 00:53:00,58.6,53.4,29.97,North,355,7.0,10.0,83,0.00,,,0.00,0.0,meteohub,2014-08-28 22:53:00,
2014-08-29 00:58:00,58.6,53.4,29.97,NW,317,5.0,10.0,83,0.00,,,0.00,0.0,meteohub,2014-08-28 22:58:00,
2014-08-29 01:03:00,58.5,53.2,29.98,NNW,335,5.0,10.0,83,0.00,,,0.00,0.0,meteohub,2014-08-28 23:03:00,
2014-08-29 01:08:00,58.3,53.4,29.98,NW,316,0.0,11.0,84,0.00,,,0.00,0.0,meteohub,2014-08-28 23:08:00,
2014-08-29 01:13:00,58.1,52.9,29.98,NNW,342,1.0,11.0,83,0.00,,,0.00,0.0,meteohub,2014-08-28 23:13:00,
2014-08-29 01:18:00,57.9,52.7,29.98,NNW,333,2.0,11.0,83,0.00,,,0.00,0.0,meteohub,2014-08-28 23:18:00,
2014-08-29 01:24:00,57.9,52.7,29.99,NNW,338,3.0,11.0,83,0.00,,,0.00,0.0,meteohub,2014-08-28 23:24:00,
2014-08-29 01:29:00,57.9,53.1,29.99,NNW,338,0.0,7.0,84,0.00,,,0.00,0.0,meteohub,2014-08-28 23:29:00,
2014-08-29 01:34:00,57.7,52.9,29.99,NNW,334,0.0,7.0,84,0.00,,,0.00,0.0,meteohub,2014-08-28 23:34:00,
2014-08-29 01:39:00,57.7,52.9,29.99,NNW,333,0.0,6.0,84,0.00,,,0.00,0.0,meteohub,2014-08-28 23:39:00,
2014-08-29 01:44:00,57.7,52.9,29.99,NNW,334,5.0,7.0,84,0.00,,,0.00,0.0,meteohub,2014-08-28 23:44:00,
2014-08-29 01:49:00,57.7,52.9,29.99,NNW,338,2.0,7.0,84,0.00,,,0.00,0.0,meteohub,2014-08-28 23:49:00,
2014-08-29 01:55:00,57.6,52.5,29.99,NNW,340,4.0,10.0,83,0.00,,,0.00,0.0,meteohub,2014-08-28 23:55:00,
2014-08-29 02:00:00,57.6,52.5,29.99,NW,319,4.0,10.0,83,0.00,,,0.00,0.0,meteohub,2014-08-29 00:00:00,
2014-08-29 02:05:00,57.6,52.5,29.99,NNW,329,4.0,10.0,83,0.00,,,0.00,0.0,meteohub,2014-08-29 00:05:00,
2014-08-29 02:10:00,57.6,52.5,29.99,NW,320,2.0,7.0,83,0.00,,,0.00,0.0,meteohub,2014-08-29 00:10:00,
2014-08-29 02:15:00,57.6,52.7,29.99,NW,318,2.0,7.0,84,0.00,,,0.00,0.0,meteohub,2014-08-29 00:15:00,
2014-08-29 02:20:00,57.6,52.7,29.99,NNW,336,2.0,7.0,84,0.00,,,0.00,0.0,meteohub,2014-08-29 00:20:00,
2014-08-29 02:26:00,57.6,52.7,29.98,NNW,331,0.0,7.0,84,0.00,,,0.00,0.0,meteohub,2014-08-29 00:26:00,
2014-08-29 02:31:00,57.6,52.7,29.98,North,0,2.0,7.0,84,0.00,,,0.00,0.0,meteohub,2014-08-29 00:31:00,
2014-08-29 02:37:00,57.4,52.3,29.98,NNE,12,0.0,7.0,83,0.00,,,0.00,0.0,meteohub,2014-08-29 00:37:00,
2014-08-29 02:42:00,57.4,52.3,29.98,North,11,0.0,7.0,83,0.00,,,0.00,0.0,meteohub,2014-08-29 00:42:00,
2014-08-29 02:47:00,57.2,52.2,29.98,NNW,338,0.0,7.0,83,0.00,,,0.00,0.0,meteohub,2014-08-29 00:47:00,
2014-08-29 02:52:00,57.2,52.2,29.98,NNW,329,0.0,7.0,83,0.00,,,0.00,0.0,meteohub,2014-08-29 00:52:00,
2014-08-29 02:57:00,57.0,52.2,29.98,NW,323,3.0,6.0,84,0.00,,,0.00,0.0,meteohub,2014-08-29 00:57:00,
2014-08-29 03:03:00,56.8,52.3,29.98,WNW,296,6.0,6.0,85,0.00,,,0.00,0.0,meteohub,2014-08-29 01:03:00,
2014-08-29 03:08:00,56.7,52.2,29.98,NNW,330,5.0,8.0,85,0.00,,,0.00,0.0,meteohub,2014-08-29 01:08:00,
2014-08-29 03:13:00,56.5,52.0,29.97,NNW,344,0.0,9.0,85,0.00,,,0.00,0.0,meteohub,2014-08-29 01:13:00,
2014-08-29 03:19:00,56.1,51.6,29.97,North,5,2.0,9.0,85,0.00,,,0.00,0.0,meteohub,2014-08-29 01:19:00,
2014-08-29 03:24:00,56.1,51.6,29.98,NNW,337,3.0,9.0,85,0.00,,,0.00,0.0,meteohub,2014-08-29 01:24:00,
2014-08-29 03:29:00,55.9,51.4,29.98,NNW,328,5.0,9.0,85,0.00,,,0.00,0.0,meteohub,2014-08-29 01:29:00,
2014-08-29 03:34:00,55.9,51.4,29.98,NW,311,3.0,9.0,85,0.00,,,0.00,0.0,meteohub,2014-08-29 01:34:00,
2014-08-29 03:39:00,55.9,51.4,29.98,NNW,344,0.0,7.0,85,0.00,,,0.00,0.0,meteohub,2014-08-29 01:39:00,
2014-08-29 03:44:00,56.1,51.6,29.98,NW,304,3.0,7.0,85,0.00,,,0.00,0.0,meteohub,2014-08-29 01:44:00,
2014-08-29 03:50:00,56.3,51.8,29.98,NW,307,5.0,7.0,85,0.00,,,0.00,0.0,meteohub,2014-08-29 01:50:00,
2014-08-29 03:55:00,56.3,52.2,29.99,NW,324,4.0,7.0,86,0.00,,,0.00,0.0,meteohub,2014-08-29 01:55:00,
2014-08-29 04:00:00,56.1,52.0,29.99,NW,325,7.0,7.0,86,0.00,,,0.00,0.0,meteohub,2014-08-29 02:00:00,
2014-08-29 04:05:00,56.1,52.0,29.99,NNW,329,5.0,7.0,86,0.00,,,0.00,0.0,meteohub,2014-08-29 02:05:00,
2014-08-29 04:10:00,55.9,51.8,29.99,NW,304,2.0,9.0,86,0.00,,,0.00,0.0,meteohub,2014-08-29 02:10:00,
2014-08-29 04:15:00,55.9,51.8,29.99,WNW,300,6.0,8.0,86,0.00,,,0.00,0.0,meteohub,2014-08-29 02:15:00,
2014-08-29 04:21:00,55.8,51.3,29.99,NW,308,5.0,8.0,85,0.00,,,0.00,0.0,meteohub,2014-08-29 02:21:00,
2014-08-29 04:26:00,55.8,51.3,29.98,WNW,300,2.0,9.0,85,0.00,,,0.00,0.0,meteohub,2014-08-29 02:26:00,
2014-08-29 04:31:00,55.8,51.3,29.98,NW,311,5.0,9.0,85,0.00,,,0.00,0.0,meteohub,2014-08-29 02:31:00,
2014-08-29 04:36:00,55.9,51.3,29.98,NW,315,3.0,8.0,84,0.00,,,0.00,0.0,meteohub,2014-08-29 02:36:00,
2014-08-29 04:41:00,55.9,51.3,29.98,NW,321,4.0,8.0,84,0.00,,,0.00,0.0,meteohub,2014-08-29 02:41:00,
2014-08-29 04:47:00,55.9,50.9,29.98,NW,313,2.0,8.0,83,0.00,,,0.00,0.0,meteohub,2014-08-29 02:47:00,
2014-08-29 04:52:00,56.1,51.1,29.98,NW,319,4.0,8.0,83,0.00,,,0.00,0.0,meteohub,2014-08-29 02:52:00,
2014-08-29 04:57:00,56.1,51.1,29.98,NW,305,6.0,8.0,83,0.00,,,0.00,0.0,meteohub,2014-08-29 02:57:00,
2014-08-29 05:02:00,56.1,51.1,29.98,NW,311,5.0,8.0,83,0.00,,,0.00,0.0,meteohub,2014-08-29 03:02:00,
2014-08-29 05:07:00,56.1,51.1,29.98,WNW,295,4.0,8.0,83,0.00,,,0.00,0.0,meteohub,2014-08-29 03:07:00,
2014-08-29 05:13:00,56.1,51.1,29.99,NW,306,1.0,8.0,83,0.00,,,0.00,0.0,meteohub,2014-08-29 03:13:00,
2014-08-29 05:18:00,56.1,51.1,29.99,NW,313,4.0,8.0,83,0.00,,,0.00,0.0,meteohub,2014-08-29 03:18:00,
2014-08-29 05:23:00,55.9,50.9,29.99,WNW,302,0.0,8.0,83,0.00,,,0.00,0.0,meteohub,2014-08-29 03:23:00,
2014-08-29 05:28:00,55.9,50.9,29.99,NW,319,5.0,8.0,83,0.00,,,0.00,0.0,meteohub,2014-08-29 03:28:00,
2014-08-29 05:34:00,55.9,50.5,29.98,NW,315,4.0,8.0,82,0.00,,,0.00,0.0,meteohub,2014-08-29 03:34:00,
2014-08-29 05:39:00,55.9,50.5,29.98,NNW,338,4.0,7.0,82,0.00,,,0.00,0.0,meteohub,2014-08-29 03:39:00,
2014-08-29 05:44:00,55.9,50.5,29.99,NNW,333,3.0,7.0,82,0.00,,,0.00,0.0,meteohub,2014-08-29 03:44:00,
2014-08-29 05:49:00,55.9,50.5,29.99,NW,318,4.0,8.0,82,0.00,,,0.00,0.0,meteohub,2014-08-29 03:49:00,
2014-08-29 05:54:00,55.9,50.5,29.99,NNW,333,1.0,8.0,82,0.00,,,0.00,0.0,meteohub,2014-08-29 03:54:00,
2014-08-29 05:59:00,55.9,50.5,29.99,NNW,337,0.0,9.0,82,0.00,,,0.00,0.0,meteohub,2014-08-29 03:59:00,
2014-08-29 06:02:00,55.9,50.5,29.99,NNW,331,1.0,9.0,82,0.00,,,0.00,0.0,meteohub,2014-08-29 04:02:00,
2014-08-29 06:04:00,55.9,50.5,29.99,NNW,334,2.0,9.0,82,0.00,,,0.00,0.0,meteohub,2014-08-29 04:04:00,
2014-08-29 06:05:00,55.9,50.5,29.99,NNW,331,2.0,9.0,82,0.00,,,0.00,0.0,meteohub,2014-08-29 04:05:00,
2014-08-29 06:08:00,55.9,50.5,29.99,NW,322,4.0,9.0,82,0.00,,,0.00,0.0,meteohub,2014-08-29 04:08:00,
2014-08-29 06:12:00,55.9,50.5,29.99,NNW,333,3.0,7.0,82,0.00,,,0.00,0.0,meteohub,2014-08-29 04:12:00,
2014-08-29 06:17:00,55.8,50.4,29.99,NNW,344,0.0,7.0,82,0.00,,,0.00,0.0,meteohub,2014-08-29 04:17:00,
2014-08-29 06:22:00,55.8,50.4,29.99,NNW,341,4.0,7.0,82,0.00,,,0.00,0.0,meteohub,2014-08-29 04:22:00,
2014-08-29 06:28:00,55.8,50.4,29.99,NNW,331,2.0,7.0,82,0.00,,,0.00,0.0,meteohub,2014-08-29 04:28:00,
2014-08-29 06:33:00,55.6,50.2,29.99,NNW,340,3.0,8.0,82,0.00,,,0.00,0.0,meteohub,2014-08-29 04:33:00,
2014-08-29 06:38:00,55.6,50.2,29.99,NNW,329,3.0,8.0,82,0.00,,,0.00,0.0,meteohub,2014-08-29 04:38:00,
2014-08-29 06:43:00,55.6,50.2,29.99,NW,325,3.0,8.0,82,0.00,,,0.00,0.0,meteohub,2014-08-29 04:43:00,
2014-08-29 06:48:00,55.4,50.0,29.99,NNW,338,3.0,7.0,82,0.00,,,0.00,0.0,meteohub,2014-08-29 04:48:00,
2014-08-29 06:53:00,55.2,50.2,29.99,NNW,339,2.0,7.0,83,0.00,,,0.00,0.0,meteohub,2014-08-29 04:53:00,
2014-08-29 06:59:00,55.2,50.2,29.99,NNW,328,5.0,7.0,83,0.00,,,0.00,0.0,meteohub,2014-08-29 04:59:00,
2014-08-29 07:04:00,55.0,50.0,29.99,WNW,303,5.0,8.0,83,0.00,,,0.00,0.0,meteohub,2014-08-29 05:04:00,
2014-08-29 07:09:00,55.0,50.0,29.99,NW,315,0.0,8.0,83,0.00,,,0.00,0.0,meteohub,2014-08-29 05:09:00,
2014-08-29 07:14:00,54.9,49.8,29.99,NW,317,2.0,8.0,83,0.00,,,0.00,0.0,meteohub,2014-08-29 05:14:00,
2014-08-29 07:19:00,54.7,49.6,29.99,NW,304,7.0,8.0,83,0.00,,,0.00,0.0,meteohub,2014-08-29 05:19:00,
2014-08-29 07:24:00,54.7,50.0,29.99,NW,306,2.0,8.0,84,0.00,,,0.00,0.0,meteohub,2014-08-29 05:24:00,
2014-08-29 07:30:00,54.3,49.6,29.99,NW,323,6.0,8.0,84,0.00,,,0.00,0.0,meteohub,2014-08-29 05:30:00,
2014-08-29 07:35:00,54.3,49.6,30.00,NW,319,4.0,8.0,84,0.00,,,0.00,0.0,meteohub,2014-08-29 05:35:00,
2014-08-29 07:40:00,54.1,49.5,30.00,NW,317,3.0,8.0,84,0.00,,,0.00,0.0,meteohub,2014-08-29 05:40:00,
2014-08-29 07:45:00,54.0,49.3,30.01,NW,325,6.0,8.0,84,0.00,,,0.00,5.0,meteohub,2014-08-29 05:45:00,
2014-08-29 07:50:00,53.8,49.1,30.01,NNW,348,4.0,8.0,84,0.00,,,0.00,9.0,meteohub,2014-08-29 05:50:00,
2014-08-29 07:56:00,53.8,49.1,30.01,NW,318,4.0,8.0,84,0.00,,,0.00,12.0,meteohub,2014-08-29 05:56:00,
2014-08-29 08:01:00,53.6,49.3,30.01,NW,311,5.0,8.0,85,0.00,,,0.00,14.0,meteohub,2014-08-29 06:01:00,
2014-08-29 08:06:00,53.4,49.1,30.02,NW,316,4.0,8.0,85,0.00,,,0.00,19.0,meteohub,2014-08-29 06:06:00,
2014-08-29 08:12:00,53.4,49.1,30.01,NW,323,5.0,8.0,85,0.00,,,0.00,19.0,meteohub,2014-08-29 06:12:00,
2014-08-29 08:17:00,53.4,49.1,30.01,NNW,332,5.0,8.0,85,0.00,,,0.00,21.0,meteohub,2014-08-29 06:17:00,
2014-08-29 08:22:00,53.4,49.1,30.02,NW,319,4.0,8.0,85,0.00,,,0.00,23.0,meteohub,2014-08-29 06:22:00,
2014-08-29 08:27:00,53.4,49.3,30.02,NNW,336,4.0,8.0,86,0.00,,,0.00,35.0,meteohub,2014-08-29 06:27:00,
2014-08-29 08:32:00,53.4,49.3,30.02,NNE,14,3.0,8.0,86,0.00,,,0.00,86.0,meteohub,2014-08-29 06:32:00,
2014-08-29 08:37:00,53.4,49.3,30.02,NNE,13,5.0,8.0,86,0.00,,,0.00,107.0,meteohub,2014-08-29 06:37:00,
2014-08-29 08:43:00,53.8,49.6,30.02,NNE,26,3.0,6.0,86,0.00,,,0.00,125.0,meteohub,2014-08-29 06:43:00,
2014-08-29 08:48:00,54.1,49.8,30.02,NNE,19,5.0,6.0,85,0.00,,,0.00,149.0,meteohub,2014-08-29 06:48:00,
2014-08-29 08:53:00,54.5,49.8,30.02,NNE,16,1.0,6.0,84,0.00,,,0.00,165.0,meteohub,2014-08-29 06:53:00,
2014-08-29 08:58:00,54.9,49.5,30.02,North,10,0.0,6.0,82,0.00,,,0.00,195.0,meteohub,2014-08-29 06:58:00,
2014-08-29 09:03:00,55.0,49.3,30.02,North,5,0.0,6.0,81,0.00,,,0.00,148.0,meteohub,2014-08-29 07:03:00,
2014-08-29 09:08:00,55.4,49.3,30.03,North,355,0.0,6.0,80,0.00,,,0.00,121.0,meteohub,2014-08-29 07:08:00,
2014-08-29 09:14:00,55.8,49.3,30.03,North,355,0.0,4.0,79,0.00,,,0.00,125.0,meteohub,2014-08-29 07:14:00,
2014-08-29 09:19:00,55.8,49.3,30.03,North,355,0.0,4.0,79,0.00,,,0.00,118.0,meteohub,2014-08-29 07:19:00,
2014-08-29 09:24:00,55.9,49.1,30.02,North,355,0.0,4.0,78,0.00,,,0.00,165.0,meteohub,2014-08-29 07:24:00,